MTN001 KGEG-KLAS
Flight info
| Callsign | MTN001 |
|---|---|
| Flight time | N/A |
| Altitude | 33000 |
| Route | ZATIP Q73 WINEN STEWW CHOWW4 |
| Aircraft | CRJ7/M-SDFGIRWY/S |
Departure
| Time | 2026-04-30 13:43 |
|---|---|
| Airport | Spokane International Airport (KGEG) |
Arrival
| Time | N/A |
|---|---|
| Airport | Harry Reid International Airport (KLAS) |
| Time | Latitude | Longitude | Altitude | Speed | Heading |
|---|---|---|---|---|---|
| 2026-04-30 12:48 | 47.62406 | -117.53564 | 2373 ft | 0 kts | 339° |
| 2026-04-30 13:25 | 47.62387 | -117.53553 | 2373 ft | 4 kts | 335° |
| 2026-04-30 13:25 | 47.62367 | -117.53515 | 2373 ft | 1 kts | 225° |
| 2026-04-30 13:34 | 47.62366 | -117.53517 | 2373 ft | 0 kts | 225° |
| 2026-04-30 13:34 | 47.62354 | -117.53534 | 2373 ft | 1 kts | 221° |
| 2026-04-30 13:35 | 47.62346 | -117.53542 | 2373 ft | 1 kts | 209° |
| 2026-04-30 13:35 | 47.62325 | -117.53548 | 2373 ft | 2 kts | 176° |
| 2026-04-30 13:36 | 47.62300 | -117.53538 | 2373 ft | 2 kts | 162° |
| 2026-04-30 13:36 | 47.62285 | -117.53533 | 2373 ft | 2 kts | 174° |
| 2026-04-30 13:36 | 47.62253 | -117.53548 | 2373 ft | 3 kts | 214° |
| 2026-04-30 13:37 | 47.62238 | -117.53566 | 2373 ft | 3 kts | 222° |
| 2026-04-30 13:37 | 47.62204 | -117.53615 | 2373 ft | 4 kts | 225° |
| 2026-04-30 13:38 | 47.62163 | -117.53677 | 2373 ft | 5 kts | 225° |
| 2026-04-30 13:38 | 47.62139 | -117.53714 | 2373 ft | 5 kts | 226° |
| 2026-04-30 13:38 | 47.62085 | -117.53795 | 2373 ft | 6 kts | 223° |
| 2026-04-30 13:39 | 47.62026 | -117.53882 | 2373 ft | 6 kts | 226° |
| 2026-04-30 13:39 | 47.61963 | -117.53980 | 2373 ft | 7 kts | 227° |
| 2026-04-30 13:40 | 47.61929 | -117.54031 | 2373 ft | 7 kts | 224° |
| 2026-04-30 13:40 | 47.61893 | -117.54082 | 2373 ft | 7 kts | 224° |
| 2026-04-30 13:40 | 47.61858 | -117.54135 | 2373 ft | 7 kts | 225° |
| 2026-04-30 13:40 | 47.61808 | -117.54212 | 2373 ft | 12 kts | 225° |
| 2026-04-30 13:41 | 47.61747 | -117.54304 | 2374 ft | 15 kts | 225° |
| 2026-04-30 13:41 | 47.61656 | -117.54440 | 2373 ft | 22 kts | 225° |
| 2026-04-30 13:41 | 47.61542 | -117.54618 | 2373 ft | 24 kts | 226° |
| 2026-04-30 13:41 | 47.61426 | -117.54786 | 2373 ft | 23 kts | 223° |
| 2026-04-30 13:42 | 47.61314 | -117.54955 | 2373 ft | 23 kts | 225° |
| 2026-04-30 13:42 | 47.61206 | -117.55118 | 2373 ft | 18 kts | 225° |
| 2026-04-30 13:42 | 47.61039 | -117.55010 | 2375 ft | 15 kts | 99° |
| 2026-04-30 13:43 | 47.61220 | -117.54691 | 2375 ft | 74 kts | 46° |
| 2026-04-30 13:43 | 47.61739 | -117.53910 | 2375 ft | 134 kts | 45° |
| 2026-04-30 13:43 | 47.62464 | -117.52799 | 2638 ft | 156 kts | 47° |
| 2026-04-30 13:43 | 47.63061 | -117.51364 | 3114 ft | 172 kts | 70° |
| 2026-04-30 13:44 | 47.63150 | -117.49617 | 3868 ft | 172 kts | 102° |
| 2026-04-30 13:44 | 47.62719 | -117.47979 | 4596 ft | 179 kts | 114° |
| 2026-04-30 13:44 | 47.61934 | -117.46335 | 4970 ft | 213 kts | 139° |
| 2026-04-30 13:44 | 47.60521 | -117.45467 | 5604 ft | 232 kts | 172° |
| 2026-04-30 13:45 | 47.57438 | -117.45004 | 7631 ft | 226 kts | 168° |
| 2026-04-30 13:45 | 47.55864 | -117.44537 | 8318 ft | 233 kts | 165° |
| 2026-04-30 13:45 | 47.54292 | -117.43967 | 9036 ft | 232 kts | 163° |
| 2026-04-30 13:46 | 47.52723 | -117.43333 | 9694 ft | 235 kts | 162° |
| 2026-04-30 13:46 | 47.51149 | -117.42666 | 10145 ft | 247 kts | 162° |
| 2026-04-30 13:46 | 47.49435 | -117.41928 | 10406 ft | 265 kts | 162° |
| 2026-04-30 13:46 | 47.47607 | -117.41139 | 10694 ft | 281 kts | 162° |
| 2026-04-30 13:47 | 47.45686 | -117.40310 | 11104 ft | 293 kts | 162° |
| 2026-04-30 13:47 | 47.43707 | -117.39455 | 11675 ft | 298 kts | 162° |
| 2026-04-30 13:47 | 47.41710 | -117.38589 | 12380 ft | 299 kts | 162° |
| 2026-04-30 13:47 | 47.39706 | -117.37757 | 13090 ft | 300 kts | 163° |
| 2026-04-30 13:48 | 47.37688 | -117.36906 | 13717 ft | 303 kts | 160° |
| 2026-04-30 13:48 | 47.35660 | -117.35834 | 14041 ft | 317 kts | 156° |
| 2026-04-30 13:48 | 47.33599 | -117.34484 | 14324 ft | 331 kts | 152° |
| 2026-04-30 13:48 | 47.31517 | -117.32912 | 14703 ft | 340 kts | 150° |
| 2026-04-30 13:49 | 47.29400 | -117.31255 | 15037 ft | 352 kts | 150° |
| 2026-04-30 13:49 | 47.27220 | -117.29542 | 15324 ft | 363 kts | 150° |
| 2026-04-30 13:49 | 47.24955 | -117.27809 | 15856 ft | 367 kts | 151° |
| 2026-04-30 13:49 | 47.22672 | -117.26094 | 16386 ft | 371 kts | 151° |
| 2026-04-30 13:50 | 47.20346 | -117.24357 | 16921 ft | 375 kts | 151° |
| 2026-04-30 13:50 | 47.15644 | -117.20854 | 17942 ft | 382 kts | 151° |
| 2026-04-30 13:50 | 47.13288 | -117.19103 | 18440 ft | 385 kts | 151° |
| 2026-04-30 13:51 | 47.10880 | -117.17323 | 18890 ft | 388 kts | 151° |
| 2026-04-30 13:51 | 47.08459 | -117.15520 | 19319 ft | 391 kts | 151° |
| 2026-04-30 13:51 | 47.06021 | -117.13711 | 19750 ft | 394 kts | 152° |
| 2026-04-30 13:51 | 47.03564 | -117.11889 | 20157 ft | 397 kts | 151° |
| 2026-04-30 13:52 | 47.01090 | -117.10057 | 20561 ft | 400 kts | 151° |
| 2026-04-30 13:52 | 46.98597 | -117.08217 | 20964 ft | 402 kts | 152° |
| 2026-04-30 13:52 | 46.96091 | -117.06364 | 21348 ft | 405 kts | 152° |
| 2026-04-30 13:52 | 46.93600 | -117.04527 | 21716 ft | 407 kts | 152° |
| 2026-04-30 13:53 | 46.91063 | -117.02660 | 22088 ft | 410 kts | 152° |
| 2026-04-30 13:53 | 46.88501 | -117.00775 | 22450 ft | 413 kts | 152° |
| 2026-04-30 13:53 | 46.85922 | -116.98876 | 22807 ft | 415 kts | 152° |
| 2026-04-30 13:53 | 46.83326 | -116.96975 | 23153 ft | 418 kts | 152° |
| 2026-04-30 13:54 | 46.80726 | -116.95065 | 23493 ft | 420 kts | 152° |
| 2026-04-30 13:54 | 46.78107 | -116.93146 | 23811 ft | 422 kts | 152° |
| 2026-04-30 13:54 | 46.75471 | -116.91215 | 24095 ft | 424 kts | 152° |
| 2026-04-30 13:54 | 46.72819 | -116.89281 | 24367 ft | 426 kts | 152° |
| 2026-04-30 13:55 | 46.70198 | -116.87366 | 24629 ft | 428 kts | 152° |
| 2026-04-30 13:55 | 46.67531 | -116.85420 | 24894 ft | 430 kts | 152° |
| 2026-04-30 13:55 | 46.64846 | -116.83462 | 25152 ft | 432 kts | 152° |
| 2026-04-30 13:55 | 46.62151 | -116.81499 | 25401 ft | 433 kts | 152° |
| 2026-04-30 13:56 | 46.59446 | -116.79533 | 25647 ft | 435 kts | 152° |
| 2026-04-30 13:56 | 46.56725 | -116.77556 | 25880 ft | 437 kts | 152° |
| 2026-04-30 13:56 | 46.53992 | -116.75578 | 26126 ft | 439 kts | 152° |
| 2026-04-30 13:56 | 46.51261 | -116.73595 | 26344 ft | 440 kts | 152° |
| 2026-04-30 13:57 | 46.48507 | -116.71604 | 26577 ft | 442 kts | 152° |
| 2026-04-30 13:57 | 46.45751 | -116.69611 | 26799 ft | 443 kts | 152° |
| 2026-04-30 13:57 | 46.43021 | -116.67639 | 27007 ft | 445 kts | 153° |
| 2026-04-30 13:57 | 46.40244 | -116.65640 | 27224 ft | 446 kts | 152° |
| 2026-04-30 13:58 | 46.37456 | -116.63626 | 27412 ft | 448 kts | 153° |
| 2026-04-30 13:58 | 46.31849 | -116.59594 | 27812 ft | 451 kts | 153° |
| 2026-04-30 13:58 | 46.29024 | -116.57580 | 28008 ft | 452 kts | 153° |
| 2026-04-30 13:59 | 46.26201 | -116.55550 | 28192 ft | 454 kts | 153° |
| 2026-04-30 13:59 | 46.23375 | -116.53514 | 28377 ft | 455 kts | 153° |
| 2026-04-30 13:59 | 46.20473 | -116.51644 | 28547 ft | 457 kts | 158° |
| 2026-04-30 13:59 | 46.17471 | -116.50099 | 28716 ft | 458 kts | 161° |
| 2026-04-30 14:00 | 46.14469 | -116.48689 | 28878 ft | 459 kts | 162° |
| 2026-04-30 14:00 | 46.08387 | -116.45726 | 29205 ft | 462 kts | 160° |
| 2026-04-30 14:00 | 46.05358 | -116.44167 | 29368 ft | 463 kts | 160° |
| 2026-04-30 14:01 | 46.02323 | -116.42610 | 29516 ft | 464 kts | 160° |
| 2026-04-30 14:01 | 45.99269 | -116.41069 | 29638 ft | 465 kts | 160° |
| 2026-04-30 14:01 | 45.93138 | -116.37944 | 29868 ft | 468 kts | 161° |
| 2026-04-30 14:02 | 45.90068 | -116.36392 | 30080 ft | 467 kts | 161° |
| 2026-04-30 14:02 | 45.86996 | -116.34834 | 30276 ft | 467 kts | 161° |
| 2026-04-30 14:02 | 45.83973 | -116.33300 | 30445 ft | 467 kts | 161° |
| 2026-04-30 14:02 | 45.80905 | -116.31754 | 30591 ft | 467 kts | 161° |
| 2026-04-30 14:03 | 45.77835 | -116.30204 | 30724 ft | 467 kts | 161° |
| 2026-04-30 14:03 | 45.74766 | -116.28656 | 30829 ft | 468 kts | 161° |
| 2026-04-30 14:03 | 45.71690 | -116.27100 | 30955 ft | 468 kts | 161° |
| 2026-04-30 14:03 | 45.68616 | -116.25557 | 31097 ft | 468 kts | 161° |
| 2026-04-30 14:04 | 45.65547 | -116.24015 | 31278 ft | 466 kts | 161° |
| 2026-04-30 14:04 | 45.63529 | -116.23001 | 31488 ft | 464 kts | 161° |
| 2026-04-30 14:04 | 45.60483 | -116.21472 | 31642 ft | 463 kts | 161° |
| 2026-04-30 14:04 | 45.57436 | -116.19936 | 31771 ft | 464 kts | 161° |
| 2026-04-30 14:05 | 45.54387 | -116.18408 | 31912 ft | 464 kts | 161° |
| 2026-04-30 14:05 | 45.51337 | -116.16888 | 32035 ft | 464 kts | 161° |
| 2026-04-30 14:05 | 45.47293 | -116.14864 | 32182 ft | 464 kts | 161° |
| 2026-04-30 14:05 | 45.45267 | -116.13856 | 32245 ft | 465 kts | 161° |
| 2026-04-30 14:06 | 45.42213 | -116.12331 | 32373 ft | 465 kts | 161° |
| 2026-04-30 14:06 | 45.36089 | -116.09287 | 32591 ft | 466 kts | 161° |
| 2026-04-30 14:07 | 45.29958 | -116.06237 | 32830 ft | 466 kts | 161° |
| 2026-04-30 14:07 | 45.26887 | -116.04720 | 32919 ft | 467 kts | 161° |
| 2026-04-30 14:07 | 45.23820 | -116.03199 | 33069 ft | 466 kts | 161° |
| 2026-04-30 14:08 | 45.17685 | -116.00164 | 33228 ft | 469 kts | 161° |
| 2026-04-30 14:08 | 45.08405 | -115.95597 | 33264 ft | 474 kts | 161° |
| 2026-04-30 14:09 | 45.02169 | -115.92533 | 33253 ft | 474 kts | 161° |
| 2026-04-30 14:10 | 44.92807 | -115.87935 | 33262 ft | 475 kts | 161° |
| 2026-04-30 14:10 | 44.86543 | -115.84886 | 33263 ft | 476 kts | 161° |
| 2026-04-30 14:11 | 44.80307 | -115.81843 | 33253 ft | 477 kts | 161° |
| 2026-04-30 14:11 | 44.74027 | -115.78790 | 33245 ft | 478 kts | 161° |
| 2026-04-30 14:12 | 44.67724 | -115.75734 | 33234 ft | 479 kts | 161° |
| 2026-04-30 14:12 | 44.61407 | -115.72681 | 33222 ft | 480 kts | 162° |
| 2026-04-30 14:13 | 44.55121 | -115.69628 | 33223 ft | 481 kts | 161° |
| 2026-04-30 14:13 | 44.48782 | -115.66580 | 33223 ft | 481 kts | 161° |
| 2026-04-30 14:14 | 44.42433 | -115.63528 | 33220 ft | 482 kts | 162° |
| 2026-04-30 14:14 | 44.36078 | -115.60478 | 33212 ft | 483 kts | 162° |
| 2026-04-30 14:15 | 44.29746 | -115.57450 | 33207 ft | 484 kts | 162° |
| 2026-04-30 14:15 | 44.23367 | -115.54399 | 33207 ft | 484 kts | 162° |
| 2026-04-30 14:16 | 44.16978 | -115.51357 | 33202 ft | 485 kts | 162° |
| 2026-04-30 14:16 | 44.10634 | -115.48328 | 33191 ft | 485 kts | 162° |
| 2026-04-30 14:17 | 44.04236 | -115.45305 | 33204 ft | 486 kts | 162° |
| 2026-04-30 14:17 | 43.97834 | -115.42272 | 33186 ft | 487 kts | 162° |
| 2026-04-30 14:18 | 43.91418 | -115.39245 | 33179 ft | 487 kts | 162° |
| 2026-04-30 14:18 | 43.81764 | -115.34695 | 33172 ft | 488 kts | 162° |
| 2026-04-30 14:19 | 43.72097 | -115.30161 | 33163 ft | 489 kts | 162° |
| 2026-04-30 14:20 | 43.65682 | -115.27158 | 33158 ft | 490 kts | 162° |
| 2026-04-30 14:20 | 43.55978 | -115.22635 | 33162 ft | 491 kts | 162° |
| 2026-04-30 14:21 | 43.49486 | -115.19613 | 33158 ft | 491 kts | 162° |
| 2026-04-30 14:22 | 43.39795 | -115.15117 | 33152 ft | 493 kts | 162° |
| 2026-04-30 14:22 | 43.29998 | -115.10792 | 33147 ft | 493 kts | 165° |
| 2026-04-30 14:23 | 43.16813 | -115.05463 | 33169 ft | 494 kts | 164° |
| 2026-04-30 14:24 | 43.06909 | -115.01469 | 33197 ft | 495 kts | 164° |
| 2026-04-30 14:25 | 42.93685 | -114.96140 | 33237 ft | 496 kts | 165° |
| 2026-04-30 14:26 | 42.83785 | -114.92170 | 33238 ft | 496 kts | 165° |
| 2026-04-30 14:27 | 42.73810 | -114.88224 | 33221 ft | 496 kts | 168° |
| 2026-04-30 14:27 | 42.67037 | -114.86878 | 33196 ft | 494 kts | 178° |
| 2026-04-30 14:28 | 42.56726 | -114.86093 | 33171 ft | 495 kts | 178° |
| 2026-04-30 14:28 | 42.49847 | -114.85400 | 33172 ft | 496 kts | 178° |
| 2026-04-30 14:29 | 42.37221 | -114.84147 | 33172 ft | 497 kts | 178° |
| 2026-04-30 14:31 | 42.18792 | -114.82325 | 33131 ft | 500 kts | 178° |
| 2026-04-30 14:31 | 42.08341 | -114.81297 | 33120 ft | 501 kts | 179° |
| 2026-04-30 14:32 | 41.97939 | -114.80276 | 33123 ft | 502 kts | 178° |
| 2026-04-30 14:33 | 41.90958 | -114.79598 | 33123 ft | 503 kts | 179° |
| 2026-04-30 14:33 | 41.80457 | -114.78569 | 33123 ft | 504 kts | 178° |
| 2026-04-30 14:34 | 41.73450 | -114.77892 | 33118 ft | 505 kts | 179° |
| 2026-04-30 14:34 | 41.66425 | -114.77198 | 33141 ft | 506 kts | 179° |
| 2026-04-30 14:35 | 41.55909 | -114.76191 | 33136 ft | 507 kts | 179° |
| 2026-04-30 14:36 | 41.48855 | -114.75509 | 33138 ft | 509 kts | 179° |
| 2026-04-30 14:36 | 41.41784 | -114.74829 | 33134 ft | 509 kts | 179° |
| 2026-04-30 14:37 | 41.34702 | -114.74145 | 33136 ft | 510 kts | 179° |
| 2026-04-30 14:37 | 41.27661 | -114.73471 | 33149 ft | 511 kts | 179° |
| 2026-04-30 14:38 | 41.20547 | -114.72792 | 33144 ft | 512 kts | 179° |
| 2026-04-30 14:38 | 41.13441 | -114.72104 | 33144 ft | 512 kts | 179° |
| 2026-04-30 14:39 | 41.06315 | -114.71429 | 33146 ft | 513 kts | 179° |
| 2026-04-30 14:39 | 40.99194 | -114.70760 | 33151 ft | 513 kts | 179° |
| 2026-04-30 14:40 | 40.88522 | -114.69749 | 33158 ft | 514 kts | 179° |
| 2026-04-30 14:40 | 40.81364 | -114.69068 | 33162 ft | 515 kts | 179° |
| 2026-04-30 14:41 | 40.74198 | -114.68396 | 33167 ft | 516 kts | 180° |
| 2026-04-30 14:41 | 40.67030 | -114.67723 | 33172 ft | 517 kts | 179° |
| 2026-04-30 14:42 | 40.59844 | -114.67047 | 33181 ft | 518 kts | 179° |
| 2026-04-30 14:42 | 40.52689 | -114.66376 | 33165 ft | 519 kts | 180° |
| 2026-04-30 14:43 | 40.45477 | -114.65700 | 33164 ft | 519 kts | 180° |
| 2026-04-30 14:43 | 40.38262 | -114.65031 | 33156 ft | 520 kts | 180° |
| 2026-04-30 14:44 | 40.31036 | -114.64362 | 33162 ft | 521 kts | 180° |
| 2026-04-30 14:44 | 40.23801 | -114.63688 | 33169 ft | 522 kts | 180° |
| 2026-04-30 14:45 | 40.16544 | -114.63015 | 33156 ft | 523 kts | 180° |
| 2026-04-30 14:45 | 40.09309 | -114.62345 | 33153 ft | 524 kts | 180° |
| 2026-04-30 14:46 | 40.02032 | -114.61673 | 33163 ft | 524 kts | 180° |
| 2026-04-30 14:46 | 39.95930 | -114.61110 | 33182 ft | 525 kts | 180° |
| 2026-04-30 14:47 | 39.87428 | -114.60320 | 33143 ft | 526 kts | 180° |
| 2026-04-30 14:47 | 39.80116 | -114.59654 | 33146 ft | 526 kts | 180° |
| 2026-04-30 14:48 | 39.72818 | -114.58989 | 33148 ft | 526 kts | 180° |
| 2026-04-30 14:48 | 39.65513 | -114.58318 | 33137 ft | 526 kts | 181° |
| 2026-04-30 14:49 | 39.58218 | -114.57654 | 33144 ft | 525 kts | 180° |
| 2026-04-30 14:49 | 39.50969 | -114.56990 | 33152 ft | 525 kts | 180° |
| 2026-04-30 14:50 | 39.40015 | -114.55990 | 33162 ft | 525 kts | 180° |
| 2026-04-30 14:51 | 39.32767 | -114.54851 | 33152 ft | 531 kts | 168° |
| 2026-04-30 14:51 | 39.30437 | -114.53854 | 33157 ft | 533 kts | 162° |
| 2026-04-30 14:52 | 39.19325 | -114.46873 | 33144 ft | 536 kts | 150° |
| 2026-04-30 14:52 | 39.10923 | -114.40009 | 33138 ft | 536 kts | 150° |
| 2026-04-30 14:53 | 39.01337 | -114.32550 | 33152 ft | 537 kts | 150° |
| 2026-04-30 14:54 | 38.88551 | -114.22620 | 33115 ft | 536 kts | 151° |
| 2026-04-30 14:55 | 38.79017 | -114.15244 | 33113 ft | 535 kts | 151° |
| 2026-04-30 14:56 | 38.66271 | -114.05421 | 33121 ft | 533 kts | 152° |
| 2026-04-30 14:57 | 38.56768 | -113.98121 | 33126 ft | 533 kts | 152° |
| 2026-04-30 14:58 | 38.44041 | -113.88385 | 33097 ft | 532 kts | 152° |
| 2026-04-30 14:58 | 38.34570 | -113.81165 | 33097 ft | 530 kts | 152° |
| 2026-04-30 15:00 | 38.18761 | -113.69157 | 33086 ft | 528 kts | 153° |
| 2026-04-30 15:01 | 38.06148 | -113.59625 | 33097 ft | 526 kts | 153° |
| 2026-04-30 15:01 | 37.96563 | -113.53116 | 33081 ft | 515 kts | 168° |
| 2026-04-30 15:02 | 37.89605 | -113.51385 | 33087 ft | 506 kts | 178° |
| 2026-04-30 15:03 | 37.79222 | -113.50513 | 33082 ft | 493 kts | 191° |
| 2026-04-30 15:03 | 37.72384 | -113.51176 | 33075 ft | 493 kts | 189° |
| 2026-04-30 15:04 | 37.55260 | -113.52051 | 33058 ft | 491 kts | 188° |
| 2026-04-30 15:06 | 37.38265 | -113.52927 | 33024 ft | 488 kts | 188° |
| 2026-04-30 15:07 | 37.24912 | -113.54639 | 33029 ft | 473 kts | 202° |
| 2026-04-30 15:07 | 37.18574 | -113.57076 | 32540 ft | 481 kts | 205° |
| 2026-04-30 15:08 | 37.12525 | -113.60464 | 31744 ft | 470 kts | 212° |
| 2026-04-30 15:08 | 37.03751 | -113.65796 | 30303 ft | 470 kts | 211° |
| 2026-04-30 15:09 | 36.97855 | -113.69242 | 29213 ft | 465 kts | 211° |
| 2026-04-30 15:09 | 36.92004 | -113.72639 | 28142 ft | 462 kts | 211° |
| 2026-04-30 15:10 | 36.87210 | -113.75446 | 27268 ft | 461 kts | 210° |
| 2026-04-30 15:11 | 36.76077 | -113.81934 | 25294 ft | 424 kts | 211° |
| 2026-04-30 15:11 | 36.70809 | -113.84992 | 24330 ft | 411 kts | 211° |
| 2026-04-30 15:12 | 36.63157 | -113.89451 | 22837 ft | 398 kts | 211° |
| 2026-04-30 15:13 | 36.58414 | -113.92717 | 21780 ft | 378 kts | 228° |
| 2026-04-30 15:14 | 36.52198 | -114.02672 | 19780 ft | 359 kts | 237° |
| 2026-04-30 15:14 | 36.48632 | -114.08441 | 18669 ft | 353 kts | 235° |
| 2026-04-30 15:16 | 36.41298 | -114.20221 | 16113 ft | 330 kts | 234° |
| 2026-04-30 15:17 | 36.35851 | -114.28826 | 14130 ft | 306 kts | 233° |
| 2026-04-30 15:18 | 36.29109 | -114.39396 | 11597 ft | 307 kts | 233° |
| 2026-04-30 15:19 | 36.25185 | -114.45530 | 10149 ft | 306 kts | 232° |